createdAt,value
2023-03-29T00:00:36.030Z,2.25
2023-03-29T00:03:04.234Z,2.72
2023-03-29T00:05:34.035Z,2.65
2023-03-29T00:08:04.591Z,2.67
2023-03-29T00:10:35.363Z,2.80
2023-03-29T00:13:03.202Z,3.15
2023-03-29T00:15:31.394Z,2.35
2023-03-29T00:17:59.768Z,3.03
2023-03-29T00:20:27.329Z,2.75
2023-03-29T00:22:55.422Z,2.97
2023-03-29T00:25:24.739Z,3.40
2023-03-29T00:27:52.427Z,3.80
2023-03-29T00:30:19.628Z,3.50
2023-03-29T00:32:47.833Z,3.38
2023-03-29T00:35:15.037Z,3.75
2023-03-29T00:37:47.262Z,4.25
2023-03-29T00:40:15.652Z,3.20
2023-03-29T00:42:47.082Z,3.85
2023-03-29T00:45:19.325Z,3.85
2023-03-29T00:47:57.503Z,3.78
2023-03-29T00:50:48.678Z,3.47
2023-03-29T00:53:33.919Z,3.53
2023-03-29T00:56:13.062Z,4.38
2023-03-29T00:58:55.055Z,4.30
2023-03-29T01:01:42.458Z,3.35
2023-03-29T01:04:25.332Z,4.25
2023-03-29T01:07:07.560Z,4.03
2023-03-29T01:09:39.305Z,3.70
2023-03-29T01:12:20.948Z,3.70
2023-03-29T01:15:01.768Z,3.22
2023-03-29T01:17:31.766Z,3.90
2023-03-29T01:20:15.417Z,3.58
2023-03-29T01:23:14.334Z,3.67
2023-03-29T01:26:20.527Z,3.92
2023-03-29T01:28:54.676Z,3.17
2023-03-29T01:31:47.140Z,3.45
2023-03-29T01:34:30.944Z,3.50
2023-03-29T01:37:27.595Z,3.55
2023-03-29T01:39:55.926Z,3.47
2023-03-29T01:42:37.029Z,3.75
2023-03-29T01:45:45.634Z,3.65
2023-03-29T01:48:39.724Z,3.22
2023-03-29T01:51:14.307Z,3.70
2023-03-29T01:54:05.976Z,3.22
2023-03-29T01:56:39.451Z,3.17
2023-03-29T01:59:13.111Z,4.05
2023-03-29T02:01:49.450Z,3.50
2023-03-29T02:04:40.467Z,3.78
2023-03-29T02:07:10.628Z,3.88
2023-03-29T02:09:39.999Z,3.20
2023-03-29T02:12:08.376Z,3.63
2023-03-29T02:14:39.045Z,3.38
2023-03-29T02:17:26.214Z,4.00
2023-03-29T02:20:17.713Z,4.10
2023-03-29T02:23:04.884Z,4.03
2023-03-29T02:25:32.745Z,4.18
2023-03-29T02:28:00.881Z,3.58
2023-03-29T02:30:38.622Z,3.65
2023-03-29T02:33:18.280Z,4.20
2023-03-29T02:35:53.336Z,4.75
2023-03-29T02:38:22.110Z,4.30
2023-03-29T02:40:49.606Z,4.10
2023-03-29T02:43:17.421Z,4.30
2023-03-29T02:45:46.494Z,4.55
2023-03-29T02:48:18.233Z,4.82
2023-03-29T02:50:56.406Z,4.75
2023-03-29T02:53:32.158Z,4.57
2023-03-29T02:56:02.335Z,5.20
2023-03-29T02:58:31.738Z,4.32
2023-03-29T03:01:01.518Z,5.55
2023-03-29T03:03:29.570Z,5.63
2023-03-29T03:06:01.638Z,5.63
2023-03-29T03:08:30.761Z,4.97
2023-03-29T03:10:59.859Z,4.50
2023-03-29T03:13:27.340Z,4.88
2023-03-29T03:15:54.837Z,4.47
2023-03-29T03:18:23.734Z,4.28
2023-03-29T03:21:04.854Z,5.13
2023-03-29T03:23:32.143Z,4.55
2023-03-29T03:26:02.164Z,4.25
2023-03-29T03:28:32.732Z,5.22
2023-03-29T03:31:00.827Z,4.28
2023-03-29T03:33:56.935Z,5.05
2023-03-29T03:36:41.456Z,4.55
2023-03-29T03:39:12.057Z,5.22
2023-03-29T03:41:49.750Z,5.32
2023-03-29T03:44:21.060Z,4.70
2023-03-29T03:47:01.113Z,5.40
2023-03-29T03:49:28.540Z,5.07
2023-03-29T03:51:55.704Z,3.90
2023-03-29T03:54:24.274Z,4.97
2023-03-29T03:57:17.650Z,4.20
2023-03-29T03:59:50.467Z,4.20
2023-03-29T04:02:25.812Z,4.57
2023-03-29T04:04:54.977Z,4.82
2023-03-29T04:07:28.717Z,4.88
2023-03-29T04:10:11.485Z,4.80
2023-03-29T04:13:06.746Z,4.75
2023-03-29T04:15:41.923Z,4.32
2023-03-29T04:18:14.605Z,5.18
2023-03-29T04:20:46.049Z,4.57
2023-03-29T04:23:22.276Z,4.15
2023-03-29T04:25:55.955Z,4.35
2023-03-29T04:28:47.078Z,5.43
2023-03-29T04:31:32.371Z,4.72
2023-03-29T04:34:23.403Z,5.13
2023-03-29T04:36:59.980Z,5.07
2023-03-29T04:39:34.239Z,5.20
2023-03-29T04:42:05.255Z,4.28
2023-03-29T04:44:35.478Z,5.03
2023-03-29T04:49:51.884Z,5.22
2023-03-29T04:52:35.602Z,5.68
2023-03-29T04:55:05.836Z,5.97
2023-03-29T04:57:45.403Z,5.18
2023-03-29T05:00:20.997Z,5.30
2023-03-29T05:03:04.999Z,5.55
2023-03-29T05:05:35.607Z,5.75
2023-03-29T05:08:03.465Z,4.68
2023-03-29T05:10:59.616Z,5.55
2023-03-29T05:13:32.653Z,5.38
2023-03-29T05:16:01.338Z,4.88
2023-03-29T05:18:29.964Z,5.25
2023-03-29T05:20:58.644Z,5.75
2023-03-29T05:23:27.682Z,5.53
2023-03-29T05:26:24.073Z,5.35
2023-03-29T05:28:56.787Z,6.30
2023-03-29T05:31:24.177Z,5.38
2023-03-29T05:33:54.594Z,5.90
2023-03-29T05:36:22.120Z,5.00
2023-03-29T05:38:50.475Z,5.28
2023-03-29T05:41:22.795Z,4.95
2023-03-29T05:44:11.880Z,5.53
2023-03-29T05:46:41.934Z,4.93
2023-03-29T05:49:13.454Z,5.05
2023-03-29T05:51:57.033Z,5.63
2023-03-29T05:54:26.309Z,5.57
2023-03-29T05:56:53.502Z,5.95
2023-03-29T05:59:24.591Z,5.45
2023-03-29T06:01:52.084Z,5.90
2023-03-29T06:04:21.480Z,5.70
2023-03-29T06:07:00.481Z,6.30
2023-03-29T06:09:32.276Z,5.55
2023-03-29T06:12:04.055Z,6.20
2023-03-29T06:14:50.513Z,5.80
2023-03-29T06:17:34.854Z,5.35
2023-03-29T06:20:02.806Z,5.93
2023-03-29T06:22:31.655Z,6.18
2023-03-29T06:24:59.694Z,5.93
2023-03-29T06:27:34.399Z,5.80
2023-03-29T06:30:05.899Z,5.55
2023-03-29T06:32:35.806Z,5.63
2023-03-29T06:35:12.388Z,4.97
2023-03-29T06:37:49.846Z,5.57
2023-03-29T06:40:51.511Z,5.40
2023-03-29T06:43:21.936Z,5.68
2023-03-29T06:46:12.343Z,5.18
2023-03-29T06:48:53.757Z,5.88
2023-03-29T06:51:23.443Z,4.50
2023-03-29T06:53:52.761Z,5.03
2023-03-29T06:56:19.800Z,4.65
2023-03-29T06:58:53.638Z,5.45
2023-03-29T07:01:34.773Z,4.97
2023-03-29T07:04:26.276Z,5.65
2023-03-29T07:07:19.966Z,4.85
2023-03-29T07:09:55.657Z,5.00
2023-03-29T07:12:42.377Z,5.40
2023-03-29T07:15:09.841Z,5.93
2023-03-29T07:18:09.318Z,4.50
2023-03-29T07:20:57.060Z,4.35
2023-03-29T07:23:24.290Z,5.03
2023-03-29T07:25:51.753Z,5.43
2023-03-29T07:28:20.581Z,4.80
2023-03-29T07:30:47.979Z,4.65
2023-03-29T07:33:22.421Z,5.05
2023-03-29T07:35:55.730Z,4.45
2023-03-29T07:38:22.972Z,3.75
2023-03-29T07:41:15.277Z,3.92
2023-03-29T07:43:51.974Z,4.55
2023-03-29T07:46:30.966Z,4.32
2023-03-29T07:48:57.972Z,4.30
2023-03-29T07:51:27.829Z,4.40
2023-03-29T07:54:03.418Z,4.38
2023-03-29T07:56:45.601Z,4.93
2023-03-29T07:59:23.124Z,4.40
2023-03-29T08:02:01.290Z,4.75
2023-03-29T08:04:38.835Z,8.07
2023-03-29T08:07:21.358Z,4.80
2023-03-29T08:10:09.879Z,4.28
2023-03-29T08:12:55.843Z,4.60
2023-03-29T08:15:34.964Z,4.47
2023-03-29T08:18:03.213Z,4.40
2023-03-29T08:20:31.024Z,4.43
2023-03-29T08:23:05.288Z,4.43
2023-03-29T08:25:47.241Z,5.28
2023-03-29T08:28:20.249Z,4.82
2023-03-29T08:30:51.331Z,4.78
2023-03-29T08:33:18.747Z,3.92
2023-03-29T08:35:50.826Z,4.67
2023-03-29T08:38:27.926Z,5.13
2023-03-29T08:40:58.201Z,4.65
2023-03-29T08:44:13.700Z,4.57
2023-03-29T08:47:07.826Z,4.72
2023-03-29T08:49:44.446Z,4.28
2023-03-29T08:52:31.415Z,5.32
2023-03-29T08:55:16.422Z,4.68
2023-03-29T08:58:12.055Z,4.97
2023-03-29T09:00:54.350Z,5.60
2023-03-29T09:03:24.267Z,5.28
2023-03-29T09:06:16.308Z,4.60
2023-03-29T09:08:52.285Z,5.43
2023-03-29T09:11:32.731Z,5.28
2023-03-29T09:14:26.739Z,5.50
2023-03-29T09:17:29.814Z,5.30
2023-03-29T09:20:13.725Z,4.63
2023-03-29T09:22:47.865Z,5.00
2023-03-29T09:25:25.248Z,4.32
2023-03-29T09:28:05.591Z,6.05
2023-03-29T09:31:19.677Z,5.07
2023-03-29T09:33:57.436Z,5.10
2023-03-29T09:36:50.566Z,5.20
2023-03-29T09:39:21.130Z,5.50
2023-03-29T09:41:55.096Z,5.82
2023-03-29T09:44:31.765Z,5.40
2023-03-29T09:47:15.064Z,5.40
2023-03-29T09:49:50.425Z,5.05
2023-03-29T09:52:20.009Z,5.10
2023-03-29T09:55:12.963Z,4.85
2023-03-29T09:58:20.481Z,5.30
2023-03-29T10:00:53.145Z,4.85
2023-03-29T10:03:29.894Z,4.57
2023-03-29T10:06:12.611Z,5.30
2023-03-29T10:08:50.485Z,5.15
2023-03-29T10:11:23.457Z,5.07
2023-03-29T10:13:57.457Z,5.45
2023-03-29T10:16:30.518Z,4.43
2023-03-29T10:18:57.637Z,4.93
2023-03-29T10:21:25.625Z,4.60
2023-03-29T10:24:03.737Z,4.88
2023-03-29T10:26:33.182Z,4.90
2023-03-29T10:29:06.453Z,4.75
2023-03-29T10:31:38.167Z,4.65
2023-03-29T10:34:08.345Z,4.10
2023-03-29T10:36:38.726Z,3.92
2023-03-29T10:39:06.668Z,4.22
2023-03-29T10:41:38.496Z,4.82
2023-03-29T10:44:23.999Z,3.70
2023-03-29T10:46:54.597Z,4.00
2023-03-29T10:49:24.353Z,4.05
2023-03-29T10:51:53.775Z,3.92
2023-03-29T10:54:24.733Z,3.70
2023-03-29T10:56:57.874Z,3.80
2023-03-29T10:59:31.508Z,4.63
2023-03-29T11:02:15.415Z,4.00
2023-03-29T11:05:01.557Z,3.92
2023-03-29T11:07:35.643Z,3.97
2023-03-29T11:10:30.817Z,4.25
2023-03-29T11:13:09.233Z,3.55
2023-03-29T11:15:46.529Z,4.18
2023-03-29T11:18:39.287Z,4.18
2023-03-29T11:21:28.142Z,3.80
2023-03-29T11:24:10.709Z,4.57
2023-03-29T11:27:09.489Z,3.83
2023-03-29T11:30:21.887Z,3.97
2023-03-29T11:33:28.056Z,4.20
2023-03-29T11:36:09.471Z,3.10
2023-03-29T11:39:04.933Z,3.05
2023-03-29T11:41:42.676Z,3.42
2023-03-29T11:44:27.939Z,3.55
2023-03-29T11:47:14.183Z,4.03
2023-03-29T11:49:42.018Z,3.15
2023-03-29T11:52:37.045Z,3.60
2023-03-29T11:55:18.649Z,3.80
2023-03-29T11:57:57.302Z,3.72
2023-03-29T12:00:30.279Z,4.03
2023-03-29T12:05:52.225Z,3.38
2023-03-29T12:08:29.473Z,3.40
2023-03-29T12:11:25.551Z,3.70
2023-03-29T12:14:18.654Z,3.60
2023-03-29T12:17:11.785Z,3.63
2023-03-29T12:19:48.794Z,3.80
2023-03-29T12:22:16.846Z,3.58
2023-03-29T12:24:48.116Z,3.90
2023-03-29T12:27:53.812Z,3.10
2023-03-29T12:30:45.723Z,3.63
2023-03-29T12:33:27.220Z,3.55
2023-03-29T12:36:24.630Z,3.00
2023-03-29T12:39:18.959Z,3.80
2023-03-29T12:42:13.345Z,3.47
2023-03-29T12:45:01.750Z,3.42
2023-03-29T12:47:43.965Z,3.08
2023-03-29T12:50:33.591Z,3.22
2023-03-29T12:53:38.703Z,3.13
2023-03-29T12:56:09.002Z,3.22
2023-03-29T12:58:39.952Z,2.95
2023-03-29T13:01:08.760Z,3.42
2023-03-29T13:04:00.682Z,3.13
2023-03-29T13:06:50.982Z,2.90
2023-03-29T13:09:47.123Z,3.17
2023-03-29T13:12:27.387Z,2.90
2023-03-29T13:15:07.566Z,3.33
2023-03-29T13:17:49.735Z,3.00
2023-03-29T13:23:47.911Z,3.13
2023-03-29T13:26:45.997Z,2.85
2023-03-29T13:30:00.782Z,2.42
2023-03-29T13:32:37.783Z,2.90
2023-03-29T13:35:18.470Z,3.45
2023-03-29T13:37:53.451Z,2.90
2023-03-29T13:40:46.970Z,3.10
2023-03-29T13:43:20.696Z,2.97
2023-03-29T13:45:56.862Z,3.35
2023-03-29T13:48:28.423Z,3.60
2023-03-29T13:51:02.246Z,3.60
2023-03-29T13:53:48.723Z,3.85
2023-03-29T13:56:19.918Z,3.92
2023-03-29T13:58:56.868Z,4.13
2023-03-29T14:01:41.178Z,4.07
2023-03-29T14:04:17.060Z,3.83
2023-03-29T14:06:51.757Z,3.58
2023-03-29T14:09:28.534Z,3.90
2023-03-29T14:11:56.586Z,3.90
2023-03-29T14:14:26.865Z,3.75
2023-03-29T14:16:56.503Z,3.55
2023-03-29T14:19:36.522Z,3.45
2023-03-29T14:22:09.647Z,2.85
2023-03-29T14:24:48.031Z,3.05
2023-03-29T14:27:16.777Z,3.13
2023-03-29T14:29:49.518Z,3.58
2023-03-29T14:32:31.157Z,2.30
2023-03-29T14:35:01.236Z,2.88
2023-03-29T14:37:30.356Z,3.03
2023-03-29T14:39:59.360Z,3.38
2023-03-29T14:42:29.764Z,3.72
2023-03-29T14:45:09.276Z,3.50
2023-03-29T14:47:38.879Z,2.65
2023-03-29T14:50:07.156Z,2.95
2023-03-29T14:52:35.082Z,4.05
2023-03-29T14:55:04.292Z,2.95
2023-03-29T14:57:36.385Z,3.50
2023-03-29T15:00:35.101Z,3.53
2023-03-29T15:03:03.660Z,3.80
2023-03-29T15:05:38.745Z,3.67
2023-03-29T15:08:10.877Z,3.47
2023-03-29T15:10:38.836Z,3.45
2023-03-29T15:13:24.747Z,3.80
2023-03-29T15:15:56.168Z,3.35
2023-03-29T15:18:41.728Z,4.03
2023-03-29T15:21:10.987Z,3.70
2023-03-29T15:23:59.556Z,3.25
2023-03-29T15:26:44.639Z,3.63
2023-03-29T15:29:23.709Z,3.40
2023-03-29T15:31:58.999Z,3.72
2023-03-29T15:34:31.159Z,3.42
2023-03-29T15:36:58.690Z,3.78
2023-03-29T15:39:30.215Z,3.00
2023-03-29T15:41:58.613Z,3.25
2023-03-29T15:44:48.832Z,3.35
2023-03-29T15:47:16.863Z,3.42
2023-03-29T15:49:50.092Z,3.55
2023-03-29T15:52:17.125Z,3.17
2023-03-29T15:54:44.155Z,3.85
2023-03-29T15:57:15.152Z,3.55
2023-03-29T15:59:43.481Z,3.80
2023-03-29T16:02:16.611Z,3.22
2023-03-29T16:04:43.918Z,3.63
2023-03-29T16:07:14.989Z,3.13
2023-03-29T16:09:42.433Z,3.05
2023-03-29T16:12:13.354Z,3.20
2023-03-29T16:14:42.613Z,3.70
2023-03-29T16:17:10.170Z,3.60
2023-03-29T16:19:37.673Z,3.33
2023-03-29T16:22:07.492Z,3.75
2023-03-29T16:24:35.220Z,3.50
2023-03-29T16:27:05.284Z,2.88
2023-03-29T16:29:35.648Z,3.58
2023-03-29T16:32:04.732Z,3.50
2023-03-29T16:34:33.580Z,2.45
2023-03-29T16:37:01.226Z,3.03
2023-03-29T16:39:29.179Z,3.63
2023-03-29T16:42:04.126Z,3.83
2023-03-29T16:44:31.384Z,3.80
2023-03-29T16:46:59.425Z,4.00
2023-03-29T16:49:41.899Z,3.55
2023-03-29T16:52:10.836Z,4.32
2023-03-29T16:54:38.966Z,4.07
2023-03-29T16:57:08.248Z,3.78
2023-03-29T16:59:35.562Z,3.53
2023-03-29T17:02:10.808Z,3.67
2023-03-29T17:04:39.620Z,3.67
2023-03-29T17:07:07.058Z,3.30
2023-03-29T17:09:34.622Z,3.53
2023-03-29T17:12:02.670Z,3.63
2023-03-29T17:14:31.737Z,4.55
2023-03-29T17:16:59.796Z,5.05
2023-03-29T17:19:27.268Z,5.75
2023-03-29T17:21:54.197Z,5.05
2023-03-29T17:24:21.335Z,5.13
2023-03-29T17:26:48.297Z,6.10
2023-03-29T17:29:16.424Z,4.60
2023-03-29T17:31:47.827Z,4.45
2023-03-29T17:34:19.309Z,3.80
2023-03-29T17:36:53.251Z,4.63
2023-03-29T17:39:25.315Z,4.10
2023-03-29T17:41:56.276Z,3.78
2023-03-29T17:44:27.525Z,3.50
2023-03-29T17:46:56.102Z,6.78
2023-03-29T17:49:34.746Z,4.07
2023-03-29T17:52:03.123Z,3.80
2023-03-29T17:54:36.590Z,4.47
2023-03-29T17:57:07.649Z,4.50
2023-03-29T17:59:38.388Z,4.00
2023-03-29T18:02:05.922Z,5.13
2023-03-29T18:04:33.961Z,4.50
2023-03-29T18:07:03.282Z,5.07
2023-03-29T18:09:31.506Z,4.68
2023-03-29T18:11:58.712Z,4.13
2023-03-29T18:14:26.085Z,4.40
2023-03-29T18:16:58.926Z,4.40
2023-03-29T18:19:28.129Z,3.80
2023-03-29T18:21:56.439Z,4.28
2023-03-29T18:24:23.350Z,4.32
2023-03-29T18:26:50.729Z,3.70
2023-03-29T18:29:17.835Z,4.03
2023-03-29T18:31:48.162Z,4.25
2023-03-29T18:34:15.595Z,3.97
2023-03-29T18:36:42.795Z,4.60
2023-03-29T18:39:15.617Z,4.43
2023-03-29T18:41:42.664Z,4.47
2023-03-29T18:44:10.656Z,4.25
2023-03-29T18:46:52.671Z,4.88
2023-03-29T18:49:19.860Z,5.40
2023-03-29T18:51:50.893Z,5.10
2023-03-29T18:54:19.439Z,4.57
2023-03-29T18:56:46.656Z,4.10
2023-03-29T18:59:18.340Z,4.60
2023-03-29T19:01:45.831Z,5.17
2023-03-29T19:06:56.536Z,4.80
2023-03-29T19:12:06.366Z,5.53
2023-03-29T19:14:33.696Z,5.50
2023-03-29T19:17:01.171Z,5.32
2023-03-29T19:19:31.838Z,5.75
2023-03-29T19:22:00.884Z,5.65
2023-03-29T19:24:31.187Z,8.07
2023-03-29T19:27:06.598Z,6.65
2023-03-29T19:29:33.925Z,10.95
2023-03-29T19:32:02.948Z,5.20
2023-03-29T19:34:31.821Z,5.93
2023-03-29T19:37:01.583Z,5.40
2023-03-29T19:39:29.822Z,5.72
2023-03-29T19:41:57.432Z,6.35
2023-03-29T19:44:25.589Z,5.20
2023-03-29T19:46:54.853Z,5.53
2023-03-29T19:49:21.879Z,6.00
2023-03-29T19:51:54.556Z,9.50
2023-03-29T19:54:23.803Z,5.32
2023-03-29T19:56:52.543Z,6.40
2023-03-29T19:59:22.163Z,5.90
2023-03-29T20:01:52.835Z,5.43
2023-03-29T20:04:26.099Z,5.55
2023-03-29T20:06:54.560Z,4.70
2023-03-29T20:09:23.407Z,4.15
2023-03-29T20:11:50.566Z,4.15
2023-03-29T20:14:18.614Z,4.43
2023-03-29T20:16:46.546Z,3.88
2023-03-29T20:19:17.896Z,4.68
2023-03-29T20:21:45.089Z,4.40
2023-03-29T20:24:12.260Z,3.78
2023-03-29T20:26:39.477Z,4.45
2023-03-29T20:29:11.184Z,3.90
2023-03-29T20:31:38.642Z,3.80
2023-03-29T20:34:05.910Z,4.07
2023-03-29T20:36:32.958Z,3.25
2023-03-29T20:39:01.343Z,3.72
2023-03-29T20:41:28.452Z,3.63
2023-03-29T20:43:59.949Z,3.75
2023-03-29T20:46:34.132Z,3.57
2023-03-29T20:49:07.443Z,3.35
2023-03-29T20:51:34.647Z,3.25
2023-03-29T20:54:04.859Z,3.40
2023-03-29T20:56:34.625Z,3.08
2023-03-29T20:59:03.252Z,2.90
2023-03-29T21:01:41.280Z,2.75
2023-03-29T21:04:11.059Z,3.45
2023-03-29T21:06:41.916Z,2.80
2023-03-29T21:09:13.865Z,3.13
2023-03-29T21:11:42.275Z,2.63
2023-03-29T21:14:09.508Z,2.50
2023-03-29T21:16:41.670Z,2.22
2023-03-29T21:19:10.202Z,2.30
2023-03-29T21:21:38.376Z,2.42
2023-03-29T21:24:06.725Z,2.28
2023-03-29T21:26:34.543Z,2.33
2023-03-29T21:29:01.459Z,1.88
2023-03-29T21:31:28.663Z,2.20
2023-03-29T21:33:56.622Z,2.55
2023-03-29T21:36:26.312Z,2.28
2023-03-29T21:38:53.538Z,2.47
2023-03-29T21:41:20.869Z,2.03
2023-03-29T21:43:52.983Z,1.70
2023-03-29T21:46:20.033Z,1.83
2023-03-29T21:48:47.114Z,2.50
2023-03-29T21:51:14.318Z,2.03
2023-03-29T21:53:42.481Z,2.15
2023-03-29T21:56:12.251Z,2.30
2023-03-29T21:58:40.534Z,1.85
2023-03-29T22:01:09.958Z,2.63
2023-03-29T22:03:39.125Z,2.20
2023-03-29T22:06:09.496Z,2.50
2023-03-29T22:08:40.553Z,1.77
2023-03-29T22:11:11.005Z,2.55
2023-03-29T22:13:42.657Z,2.45
2023-03-29T22:16:18.277Z,2.20
2023-03-29T22:18:49.850Z,2.08
2023-03-29T22:21:23.412Z,2.38
2023-03-29T22:23:53.127Z,2.30
2023-03-29T22:26:24.496Z,2.30
2023-03-29T22:28:55.579Z,3.50
2023-03-29T22:31:23.886Z,2.28
2023-03-29T22:33:52.205Z,2.17
2023-03-29T22:36:22.502Z,2.30
2023-03-29T22:38:54.504Z,2.03
2023-03-29T22:41:23.857Z,2.33
2023-03-29T22:43:56.028Z,2.40
2023-03-29T22:46:23.985Z,2.00
2023-03-29T22:48:51.427Z,2.30
2023-03-29T22:51:18.643Z,2.40
2023-03-29T22:53:47.114Z,2.20
2023-03-29T22:56:15.626Z,2.40
2023-03-29T22:58:43.008Z,2.60
2023-03-29T23:01:10.151Z,2.38
2023-03-29T23:03:39.508Z,2.00
2023-03-29T23:06:06.740Z,2.30
2023-03-29T23:08:35.303Z,2.50
2023-03-29T23:11:04.713Z,2.10
2023-03-29T23:13:33.533Z,1.80
2023-03-29T23:16:02.436Z,2.03
2023-03-29T23:18:31.676Z,2.20
2023-03-29T23:20:59.167Z,2.33
2023-03-29T23:23:27.840Z,2.55
2023-03-29T23:25:57.944Z,2.25
2023-03-29T23:28:30.528Z,2.15
2023-03-29T23:31:30.353Z,2.40
2023-03-29T23:33:59.070Z,3.25
2023-03-29T23:36:27.258Z,2.00
2023-03-29T23:38:54.272Z,2.17
2023-03-29T23:41:23.012Z,2.38
2023-03-29T23:43:52.354Z,1.83
2023-03-29T23:46:20.385Z,2.30
2023-03-29T23:48:52.082Z,2.28
2023-03-29T23:51:23.062Z,2.67
2023-03-29T23:53:52.415Z,2.42
2023-03-29T23:56:19.774Z,2.50
2023-03-29T23:58:47.810Z,2.13
